sensor_id;sensor_type;location;lat;lon;timestamp;temperature;humidity
30244;DHT22;64022;53.652;9.792;2023-03-15T00:00:35;20.80;61.30
30244;DHT22;64022;53.652;9.792;2023-03-15T00:03:01;20.80;61.20
30244;DHT22;64022;53.652;9.792;2023-03-15T00:05:29;20.80;61.30
30244;DHT22;64022;53.652;9.792;2023-03-15T00:07:56;20.80;61.30
30244;DHT22;64022;53.652;9.792;2023-03-15T00:10:22;20.80;61.30
30244;DHT22;64022;53.652;9.792;2023-03-15T00:12:48;20.80;61.20
30244;DHT22;64022;53.652;9.792;2023-03-15T00:15:13;20.80;61.20
30244;DHT22;64022;53.652;9.792;2023-03-15T00:17:42;20.80;61.20
30244;DHT22;64022;53.652;9.792;2023-03-15T00:20:17;20.80;61.30
30244;DHT22;64022;53.652;9.792;2023-03-15T00:22:44;20.80;61.30
30244;DHT22;64022;53.652;9.792;2023-03-15T00:25:09;20.80;61.20
30244;DHT22;64022;53.652;9.792;2023-03-15T00:27:35;20.80;61.20
30244;DHT22;64022;53.652;9.792;2023-03-15T00:30:01;20.80;61.20
30244;DHT22;64022;53.652;9.792;2023-03-15T00:32:27;20.80;61.30
30244;DHT22;64022;53.652;9.792;2023-03-15T00:34:52;20.80;61.30
30244;DHT22;64022;53.652;9.792;2023-03-15T00:37:20;20.80;61.30
30244;DHT22;64022;53.652;9.792;2023-03-15T00:39:46;20.80;61.30
30244;DHT22;64022;53.652;9.792;2023-03-15T00:42:12;20.80;61.30
30244;DHT22;64022;53.652;9.792;2023-03-15T00:44:41;20.80;61.20
30244;DHT22;64022;53.652;9.792;2023-03-15T00:47:10;20.80;61.30
30244;DHT22;64022;53.652;9.792;2023-03-15T00:49:37;20.80;61.20
30244;DHT22;64022;53.652;9.792;2023-03-15T00:52:03;20.80;61.20
30244;DHT22;64022;53.652;9.792;2023-03-15T00:54:29;20.70;61.20
30244;DHT22;64022;53.652;9.792;2023-03-15T00:57:00;20.70;61.20
30244;DHT22;64022;53.652;9.792;2023-03-15T00:59:31;20.70;61.20
30244;DHT22;64022;53.652;9.792;2023-03-15T01:02:01;20.70;61.20
30244;DHT22;64022;53.652;9.792;2023-03-15T01:04:27;20.70;61.20
30244;DHT22;64022;53.652;9.792;2023-03-15T01:06:52;20.70;61.20
30244;DHT22;64022;53.652;9.792;2023-03-15T01:09:18;20.70;61.20
30244;DHT22;64022;53.652;9.792;2023-03-15T01:11:43;20.70;61.20
30244;DHT22;64022;53.652;9.792;2023-03-15T01:14:09;20.70;61.70
30244;DHT22;64022;53.652;9.792;2023-03-15T01:16:35;20.70;61.20
30244;DHT22;64022;53.652;9.792;2023-03-15T01:19:00;20.70;61.20
30244;DHT22;64022;53.652;9.792;2023-03-15T01:21:26;20.70;61.20
30244;DHT22;64022;53.652;9.792;2023-03-15T01:23:52;20.70;61.20
30244;DHT22;64022;53.652;9.792;2023-03-15T01:26:18;20.70;61.20
30244;DHT22;64022;53.652;9.792;2023-03-15T01:28:44;20.70;61.20
30244;DHT22;64022;53.652;9.792;2023-03-15T01:31:18;20.70;61.20
30244;DHT22;64022;53.652;9.792;2023-03-15T01:33:44;20.70;61.20
30244;DHT22;64022;53.652;9.792;2023-03-15T01:36:11;20.70;61.20
30244;DHT22;64022;53.652;9.792;2023-03-15T01:38:37;20.60;61.10
30244;DHT22;64022;53.652;9.792;2023-03-15T01:41:03;20.70;61.20
30244;DHT22;64022;53.652;9.792;2023-03-15T01:43:29;20.70;61.20
30244;DHT22;64022;53.652;9.792;2023-03-15T01:46:03;20.70;61.20
30244;DHT22;64022;53.652;9.792;2023-03-15T01:48:52;20.60;61.20
30244;DHT22;64022;53.652;9.792;2023-03-15T01:54:09;20.70;61.30
30244;DHT22;64022;53.652;9.792;2023-03-15T01:56:40;20.70;61.10
30244;DHT22;64022;53.652;9.792;2023-03-15T01:59:11;20.70;61.80
30244;DHT22;64022;53.652;9.792;2023-03-15T02:01:39;20.60;61.20
30244;DHT22;64022;53.652;9.792;2023-03-15T02:04:12;20.60;61.20
30244;DHT22;64022;53.652;9.792;2023-03-15T02:06:40;20.60;61.20
30244;DHT22;64022;53.652;9.792;2023-03-15T02:09:11;20.60;61.20
30244;DHT22;64022;53.652;9.792;2023-03-15T02:11:40;20.60;61.20
30244;DHT22;64022;53.652;9.792;2023-03-15T02:14:06;20.60;61.20
30244;DHT22;64022;53.652;9.792;2023-03-15T02:16:33;20.60;61.20
30244;DHT22;64022;53.652;9.792;2023-03-15T02:18:59;20.60;61.20
30244;DHT22;64022;53.652;9.792;2023-03-15T02:21:35;20.60;61.20
30244;DHT22;64022;53.652;9.792;2023-03-15T02:24:39;20.60;61.20
30244;DHT22;64022;53.652;9.792;2023-03-15T02:27:09;20.60;61.10
30244;DHT22;64022;53.652;9.792;2023-03-15T02:29:35;20.60;61.20
30244;DHT22;64022;53.652;9.792;2023-03-15T02:32:01;20.60;61.20
30244;DHT22;64022;53.652;9.792;2023-03-15T02:34:30;20.60;61.20
30244;DHT22;64022;53.652;9.792;2023-03-15T02:36:56;20.60;61.20
30244;DHT22;64022;53.652;9.792;2023-03-15T02:39:22;20.60;61.20
30244;DHT22;64022;53.652;9.792;2023-03-15T02:41:55;20.60;61.20
30244;DHT22;64022;53.652;9.792;2023-03-15T02:44:34;20.60;61.20
30244;DHT22;64022;53.652;9.792;2023-03-15T02:47:07;20.60;61.20
30244;DHT22;64022;53.652;9.792;2023-03-15T02:49:39;20.60;61.20
30244;DHT22;64022;53.652;9.792;2023-03-15T02:52:07;20.60;61.20
30244;DHT22;64022;53.652;9.792;2023-03-15T02:54:33;20.60;61.20
30244;DHT22;64022;53.652;9.792;2023-03-15T02:57:02;20.60;61.10
30244;DHT22;64022;53.652;9.792;2023-03-15T02:59:27;20.60;61.20
30244;DHT22;64022;53.652;9.792;2023-03-15T03:01:53;20.60;61.20
30244;DHT22;64022;53.652;9.792;2023-03-15T03:04:18;20.60;61.20
30244;DHT22;64022;53.652;9.792;2023-03-15T03:06:45;20.50;61.10
30244;DHT22;64022;53.652;9.792;2023-03-15T03:09:10;20.60;61.20
30244;DHT22;64022;53.652;9.792;2023-03-15T03:11:36;20.60;61.20
30244;DHT22;64022;53.652;9.792;2023-03-15T03:14:02;20.60;61.20
30244;DHT22;64022;53.652;9.792;2023-03-15T03:16:27;20.60;61.20
30244;DHT22;64022;53.652;9.792;2023-03-15T03:18:53;20.50;61.10
30244;DHT22;64022;53.652;9.792;2023-03-15T03:21:18;20.50;61.10
30244;DHT22;64022;53.652;9.792;2023-03-15T03:23:44;20.60;61.10
30244;DHT22;64022;53.652;9.792;2023-03-15T03:26:15;20.50;61.10
30244;DHT22;64022;53.652;9.792;2023-03-15T03:28:43;20.50;61.10
30244;DHT22;64022;53.652;9.792;2023-03-15T03:31:17;20.50;61.10
30244;DHT22;64022;53.652;9.792;2023-03-15T03:33:43;20.60;61.20
30244;DHT22;64022;53.652;9.792;2023-03-15T03:36:09;20.50;61.10
30244;DHT22;64022;53.652;9.792;2023-03-15T03:38:40;20.50;61.10
30244;DHT22;64022;53.652;9.792;2023-03-15T03:41:07;20.50;61.10
30244;DHT22;64022;53.652;9.792;2023-03-15T03:43:33;20.50;61.10
30244;DHT22;64022;53.652;9.792;2023-03-15T03:45:59;20.50;61.10
30244;DHT22;64022;53.652;9.792;2023-03-15T03:48:24;20.50;61.10
30244;DHT22;64022;53.652;9.792;2023-03-15T03:50:50;20.50;61.00
30244;DHT22;64022;53.652;9.792;2023-03-15T03:53:15;20.50;61.10
30244;DHT22;64022;53.652;9.792;2023-03-15T03:55:41;20.50;61.10
30244;DHT22;64022;53.652;9.792;2023-03-15T03:58:07;20.50;61.10
30244;DHT22;64022;53.652;9.792;2023-03-15T04:00:33;20.50;61.10
30244;DHT22;64022;53.652;9.792;2023-03-15T04:02:58;20.50;61.00
30244;DHT22;64022;53.652;9.792;2023-03-15T04:05:26;20.50;61.10
30244;DHT22;64022;53.652;9.792;2023-03-15T04:07:52;20.50;61.00
30244;DHT22;64022;53.652;9.792;2023-03-15T04:10:17;20.50;61.10
30244;DHT22;64022;53.652;9.792;2023-03-15T04:12:43;20.50;61.00
30244;DHT22;64022;53.652;9.792;2023-03-15T04:15:10;20.50;61.00
30244;DHT22;64022;53.652;9.792;2023-03-15T04:17:37;20.50;61.00
30244;DHT22;64022;53.652;9.792;2023-03-15T04:20:04;20.50;61.00
30244;DHT22;64022;53.652;9.792;2023-03-15T04:22:33;20.50;61.00
30244;DHT22;64022;53.652;9.792;2023-03-15T04:24:59;20.50;61.00
30244;DHT22;64022;53.652;9.792;2023-03-15T04:27:26;20.50;61.00
30244;DHT22;64022;53.652;9.792;2023-03-15T04:29:52;20.50;61.10
30244;DHT22;64022;53.652;9.792;2023-03-15T04:32:18;20.50;61.00
30244;DHT22;64022;53.652;9.792;2023-03-15T04:34:43;20.50;61.00
30244;DHT22;64022;53.652;9.792;2023-03-15T04:37:09;20.50;61.00
30244;DHT22;64022;53.652;9.792;2023-03-15T04:39:35;20.50;61.00
30244;DHT22;64022;53.652;9.792;2023-03-15T04:42:00;20.50;61.00
30244;DHT22;64022;53.652;9.792;2023-03-15T04:44:26;20.50;61.00
30244;DHT22;64022;53.652;9.792;2023-03-15T04:46:53;20.50;61.00
30244;DHT22;64022;53.652;9.792;2023-03-15T04:49:19;20.40;60.90
30244;DHT22;64022;53.652;9.792;2023-03-15T04:51:44;20.40;61.00
30244;DHT22;64022;53.652;9.792;2023-03-15T04:54:10;20.50;61.00
30244;DHT22;64022;53.652;9.792;2023-03-15T04:56:36;20.40;60.90
30244;DHT22;64022;53.652;9.792;2023-03-15T04:59:02;20.40;60.90
30244;DHT22;64022;53.652;9.792;2023-03-15T05:01:30;20.40;60.90
30244;DHT22;64022;53.652;9.792;2023-03-15T05:03:56;20.40;61.00
30244;DHT22;64022;53.652;9.792;2023-03-15T05:06:22;20.40;60.90
30244;DHT22;64022;53.652;9.792;2023-03-15T05:08:48;20.40;60.90
30244;DHT22;64022;53.652;9.792;2023-03-15T05:11:13;20.40;60.90
30244;DHT22;64022;53.652;9.792;2023-03-15T05:13:39;20.40;60.90
30244;DHT22;64022;53.652;9.792;2023-03-15T05:16:04;20.40;60.90
30244;DHT22;64022;53.652;9.792;2023-03-15T05:18:30;20.40;60.90
30244;DHT22;64022;53.652;9.792;2023-03-15T05:20:56;20.40;60.90
30244;DHT22;64022;53.652;9.792;2023-03-15T05:23:25;20.40;60.90
30244;DHT22;64022;53.652;9.792;2023-03-15T05:25:54;20.40;60.90
30244;DHT22;64022;53.652;9.792;2023-03-15T05:28:21;20.40;60.90
30244;DHT22;64022;53.652;9.792;2023-03-15T05:30:48;20.40;60.90
30244;DHT22;64022;53.652;9.792;2023-03-15T05:33:14;20.30;60.80
30244;DHT22;64022;53.652;9.792;2023-03-15T05:35:41;20.40;60.90
30244;DHT22;64022;53.652;9.792;2023-03-15T05:38:08;20.30;60.80
30244;DHT22;64022;53.652;9.792;2023-03-15T05:40:34;20.30;60.80
30244;DHT22;64022;53.652;9.792;2023-03-15T05:42:59;20.30;60.80
30244;DHT22;64022;53.652;9.792;2023-03-15T05:45:25;20.30;60.80
30244;DHT22;64022;53.652;9.792;2023-03-15T05:47:50;20.30;60.80
30244;DHT22;64022;53.652;9.792;2023-03-15T05:50:16;20.30;60.80
30244;DHT22;64022;53.652;9.792;2023-03-15T05:52:42;20.30;60.80
30244;DHT22;64022;53.652;9.792;2023-03-15T05:55:07;20.30;60.80
30244;DHT22;64022;53.652;9.792;2023-03-15T05:57:33;20.30;60.70
30244;DHT22;64022;53.652;9.792;2023-03-15T05:59:58;20.30;60.80
30244;DHT22;64022;53.652;9.792;2023-03-15T06:02:24;20.30;60.70
30244;DHT22;64022;53.652;9.792;2023-03-15T06:04:50;20.30;60.70
30244;DHT22;64022;53.652;9.792;2023-03-15T06:07:15;20.30;60.70
30244;DHT22;64022;53.652;9.792;2023-03-15T06:09:41;20.30;61.20
30244;DHT22;64022;53.652;9.792;2023-03-15T06:12:06;20.30;60.70
30244;DHT22;64022;53.652;9.792;2023-03-15T06:14:32;20.30;60.70
30244;DHT22;64022;53.652;9.792;2023-03-15T06:16:57;20.30;60.70
30244;DHT22;64022;53.652;9.792;2023-03-15T06:19:23;20.30;60.70
30244;DHT22;64022;53.652;9.792;2023-03-15T06:21:49;20.30;60.70
30244;DHT22;64022;53.652;9.792;2023-03-15T06:24:14;20.30;60.70
30244;DHT22;64022;53.652;9.792;2023-03-15T06:26:40;20.30;60.70
30244;DHT22;64022;53.652;9.792;2023-03-15T06:29:06;20.30;60.70
30244;DHT22;64022;53.652;9.792;2023-03-15T06:31:31;20.30;60.70
30244;DHT22;64022;53.652;9.792;2023-03-15T06:33:57;20.30;60.60
30244;DHT22;64022;53.652;9.792;2023-03-15T06:36:22;20.30;60.60
30244;DHT22;64022;53.652;9.792;2023-03-15T06:38:49;20.30;60.60
30244;DHT22;64022;53.652;9.792;2023-03-15T06:41:15;20.30;60.60
30244;DHT22;64022;53.652;9.792;2023-03-15T06:43:41;20.30;60.60
30244;DHT22;64022;53.652;9.792;2023-03-15T06:46:06;20.30;60.60
30244;DHT22;64022;53.652;9.792;2023-03-15T06:48:32;20.30;60.50
30244;DHT22;64022;53.652;9.792;2023-03-15T06:50:58;20.30;60.50
30244;DHT22;64022;53.652;9.792;2023-03-15T06:53:23;20.30;60.50
30244;DHT22;64022;53.652;9.792;2023-03-15T06:55:49;20.30;60.50
30244;DHT22;64022;53.652;9.792;2023-03-15T06:58:15;20.30;60.50
30244;DHT22;64022;53.652;9.792;2023-03-15T07:00:41;20.30;60.50
30244;DHT22;64022;53.652;9.792;2023-03-15T07:03:06;20.30;60.40
30244;DHT22;64022;53.652;9.792;2023-03-15T07:05:32;20.30;60.50
30244;DHT22;64022;53.652;9.792;2023-03-15T07:07:57;20.30;60.40
30244;DHT22;64022;53.652;9.792;2023-03-15T07:10:23;20.30;60.40
30244;DHT22;64022;53.652;9.792;2023-03-15T07:12:49;20.30;60.50
30244;DHT22;64022;53.652;9.792;2023-03-15T07:15:14;20.30;60.40
30244;DHT22;64022;53.652;9.792;2023-03-15T07:17:40;20.30;60.40
30244;DHT22;64022;53.652;9.792;2023-03-15T07:20:06;20.30;60.40
30244;DHT22;64022;53.652;9.792;2023-03-15T07:22:32;20.30;60.40
30244;DHT22;64022;53.652;9.792;2023-03-15T07:24:58;20.30;60.40
30244;DHT22;64022;53.652;9.792;2023-03-15T07:27:24;20.30;60.40
30244;DHT22;64022;53.652;9.792;2023-03-15T07:29:49;20.30;60.30
30244;DHT22;64022;53.652;9.792;2023-03-15T07:32:15;20.30;60.30
30244;DHT22;64022;53.652;9.792;2023-03-15T07:34:41;20.20;60.30
30244;DHT22;64022;53.652;9.792;2023-03-15T07:37:06;20.30;60.30
30244;DHT22;64022;53.652;9.792;2023-03-15T07:39:32;20.30;60.30
30244;DHT22;64022;53.652;9.792;2023-03-15T07:41:58;20.30;60.30
30244;DHT22;64022;53.652;9.792;2023-03-15T07:44:24;20.30;60.30
30244;DHT22;64022;53.652;9.792;2023-03-15T07:46:49;20.20;60.30
30244;DHT22;64022;53.652;9.792;2023-03-15T07:49:15;20.30;60.30
30244;DHT22;64022;53.652;9.792;2023-03-15T07:51:41;20.30;60.30
30244;DHT22;64022;53.652;9.792;2023-03-15T07:54:07;20.30;60.30
30244;DHT22;64022;53.652;9.792;2023-03-15T07:56:33;20.20;60.30
30244;DHT22;64022;53.652;9.792;2023-03-15T07:58:59;20.30;60.30
30244;DHT22;64022;53.652;9.792;2023-03-15T08:01:24;20.30;60.30
30244;DHT22;64022;53.652;9.792;2023-03-15T08:03:50;20.30;60.30
30244;DHT22;64022;53.652;9.792;2023-03-15T08:06:15;20.30;60.40
30244;DHT22;64022;53.652;9.792;2023-03-15T08:08:41;20.40;60.40
30244;DHT22;64022;53.652;9.792;2023-03-15T08:11:06;20.40;60.40
30244;DHT22;64022;53.652;9.792;2023-03-15T08:13:32;20.40;60.40
30244;DHT22;64022;53.652;9.792;2023-03-15T08:15:58;20.40;60.40
30244;DHT22;64022;53.652;9.792;2023-03-15T08:18:23;20.50;60.40
30244;DHT22;64022;53.652;9.792;2023-03-15T08:20:49;20.50;60.40
30244;DHT22;64022;53.652;9.792;2023-03-15T08:23:15;20.50;60.40
30244;DHT22;64022;53.652;9.792;2023-03-15T08:25:42;20.50;60.40
30244;DHT22;64022;53.652;9.792;2023-03-15T08:28:08;20.50;60.40
30244;DHT22;64022;53.652;9.792;2023-03-15T08:30:34;20.60;60.40
30244;DHT22;64022;53.652;9.792;2023-03-15T08:33:00;20.60;60.30
30244;DHT22;64022;53.652;9.792;2023-03-15T08:35:25;20.60;60.30
30244;DHT22;64022;53.652;9.792;2023-03-15T08:37:51;20.60;60.30
30244;DHT22;64022;53.652;9.792;2023-03-15T08:40:18;20.60;60.30
30244;DHT22;64022;53.652;9.792;2023-03-15T08:42:51;20.60;60.20
30244;DHT22;64022;53.652;9.792;2023-03-15T08:45:17;20.60;60.20
30244;DHT22;64022;53.652;9.792;2023-03-15T08:47:43;20.60;57.10
30244;DHT22;64022;53.652;9.792;2023-03-15T08:50:11;20.50;54.60
30244;DHT22;64022;53.652;9.792;2023-03-15T08:52:38;20.20;53.90
30244;DHT22;64022;53.652;9.792;2023-03-15T08:55:04;20.00;54.90
30244;DHT22;64022;53.652;9.792;2023-03-15T08:57:30;19.90;55.60
30244;DHT22;64022;53.652;9.792;2023-03-15T08:59:58;19.90;56.10
30244;DHT22;64022;53.652;9.792;2023-03-15T09:02:23;19.90;56.30
30244;DHT22;64022;53.652;9.792;2023-03-15T09:04:49;19.90;56.50
30244;DHT22;64022;53.652;9.792;2023-03-15T09:07:14;20.00;56.60
30244;DHT22;64022;53.652;9.792;2023-03-15T09:09:40;20.00;56.60
30244;DHT22;64022;53.652;9.792;2023-03-15T09:12:07;20.00;56.70
30244;DHT22;64022;53.652;9.792;2023-03-15T09:14:33;20.00;56.70
30244;DHT22;64022;53.652;9.792;2023-03-15T09:16:58;20.00;56.70
30244;DHT22;64022;53.652;9.792;2023-03-15T09:19:24;20.00;56.90
30244;DHT22;64022;53.652;9.792;2023-03-15T09:21:49;20.10;57.00
30244;DHT22;64022;53.652;9.792;2023-03-15T09:24:15;20.10;56.90
30244;DHT22;64022;53.652;9.792;2023-03-15T09:26:41;20.20;57.00
30244;DHT22;64022;53.652;9.792;2023-03-15T09:29:07;20.20;57.00
30244;DHT22;64022;53.652;9.792;2023-03-15T09:31:34;20.20;57.00
30244;DHT22;64022;53.652;9.792;2023-03-15T09:33:59;20.30;57.00
30244;DHT22;64022;53.652;9.792;2023-03-15T09:36:25;20.30;57.00
30244;DHT22;64022;53.652;9.792;2023-03-15T09:38:50;20.30;56.90
30244;DHT22;64022;53.652;9.792;2023-03-15T09:41:26;20.30;56.90
30244;DHT22;64022;53.652;9.792;2023-03-15T09:46:37;20.30;56.90
30244;DHT22;64022;53.652;9.792;2023-03-15T09:49:32;20.30;56.90
30244;DHT22;64022;53.652;9.792;2023-03-15T09:52:36;20.40;56.80
30244;DHT22;64022;53.652;9.792;2023-03-15T09:55:23;20.40;56.80
30244;DHT22;64022;53.652;9.792;2023-03-15T09:57:53;20.30;56.80
30244;DHT22;64022;53.652;9.792;2023-03-15T10:03:37;20.40;56.90
30244;DHT22;64022;53.652;9.792;2023-03-15T10:08:38;20.40;56.90
30244;DHT22;64022;53.652;9.792;2023-03-15T10:11:22;20.40;56.80
30244;DHT22;64022;53.652;9.792;2023-03-15T10:16:45;20.40;56.80
30244;DHT22;64022;53.652;9.792;2023-03-15T10:29:47;20.40;56.80
30244;DHT22;64022;53.652;9.792;2023-03-15T10:32:17;20.40;56.80
30244;DHT22;64022;53.652;9.792;2023-03-15T10:34:50;20.40;56.80
30244;DHT22;64022;53.652;9.792;2023-03-15T10:37:18;20.40;56.80
30244;DHT22;64022;53.652;9.792;2023-03-15T10:39:49;20.50;56.90
30244;DHT22;64022;53.652;9.792;2023-03-15T10:42:29;20.50;56.90
30244;DHT22;64022;53.652;9.792;2023-03-15T10:44:56;20.50;56.80
30244;DHT22;64022;53.652;9.792;2023-03-15T10:47:23;20.50;56.80
30244;DHT22;64022;53.652;9.792;2023-03-15T10:49:57;20.50;56.90
30244;DHT22;64022;53.652;9.792;2023-03-15T10:52:37;20.50;54.80
30244;DHT22;64022;53.652;9.792;2023-03-15T10:55:06;20.30;54.00
30244;DHT22;64022;53.652;9.792;2023-03-15T10:57:52;20.20;54.20
30244;DHT22;64022;53.652;9.792;2023-03-15T11:03:19;20.20;55.10
30244;DHT22;64022;53.652;9.792;2023-03-15T11:05:50;20.20;55.20
30244;DHT22;64022;53.652;9.792;2023-03-15T11:08:18;20.20;55.30
30244;DHT22;64022;53.652;9.792;2023-03-15T11:10:46;20.20;55.40
30244;DHT22;64022;53.652;9.792;2023-03-15T11:13:19;20.30;55.50
30244;DHT22;64022;53.652;9.792;2023-03-15T11:18:58;20.30;55.40
30244;DHT22;64022;53.652;9.792;2023-03-15T11:21:29;20.30;55.50
30244;DHT22;64022;53.652;9.792;2023-03-15T11:23:59;20.30;55.50
30244;DHT22;64022;53.652;9.792;2023-03-15T11:26:27;20.30;55.50
30244;DHT22;64022;53.652;9.792;2023-03-15T11:31:44;20.40;55.50
30244;DHT22;64022;53.652;9.792;2023-03-15T11:34:15;20.30;55.50
30244;DHT22;64022;53.652;9.792;2023-03-15T11:36:47;20.40;55.60
30244;DHT22;64022;53.652;9.792;2023-03-15T11:39:49;20.40;55.60
30244;DHT22;64022;53.652;9.792;2023-03-15T11:42:25;20.40;55.50
30244;DHT22;64022;53.652;9.792;2023-03-15T11:44:54;20.40;55.60
30244;DHT22;64022;53.652;9.792;2023-03-15T11:47:49;20.40;55.60
30244;DHT22;64022;53.652;9.792;2023-03-15T11:50:16;20.40;55.50
30244;DHT22;64022;53.652;9.792;2023-03-15T11:52:42;20.40;55.60
30244;DHT22;64022;53.652;9.792;2023-03-15T11:55:26;20.40;55.60
30244;DHT22;64022;53.652;9.792;2023-03-15T11:57:53;20.40;55.60
30244;DHT22;64022;53.652;9.792;2023-03-15T12:03:32;20.50;55.70
30244;DHT22;64022;53.652;9.792;2023-03-15T12:06:00;20.40;55.60
30244;DHT22;64022;53.652;9.792;2023-03-15T12:11:00;20.50;55.80
30244;DHT22;64022;53.652;9.792;2023-03-15T12:13:28;20.50;55.90
30244;DHT22;64022;53.652;9.792;2023-03-15T12:15:55;20.50;55.90
30244;DHT22;64022;53.652;9.792;2023-03-15T12:18:25;20.50;55.90
30244;DHT22;64022;53.652;9.792;2023-03-15T12:21:16;20.50;55.90
30244;DHT22;64022;53.652;9.792;2023-03-15T12:23:58;20.50;55.80
30244;DHT22;64022;53.652;9.792;2023-03-15T12:26:47;20.50;55.90
30244;DHT22;64022;53.652;9.792;2023-03-15T12:29:19;20.50;55.80
30244;DHT22;64022;53.652;9.792;2023-03-15T12:32:10;20.50;56.00
30244;DHT22;64022;53.652;9.792;2023-03-15T12:34:57;20.50;55.90
30244;DHT22;64022;53.652;9.792;2023-03-15T12:37:47;20.50;55.90
30244;DHT22;64022;53.652;9.792;2023-03-15T12:48:13;20.50;56.20
30244;DHT22;64022;53.652;9.792;2023-03-15T12:55:40;20.50;56.20
30244;DHT22;64022;53.652;9.792;2023-03-15T12:58:10;20.50;56.20
30244;DHT22;64022;53.652;9.792;2023-03-15T13:00:39;20.50;56.20
30244;DHT22;64022;53.652;9.792;2023-03-15T13:03:21;20.50;56.20
30244;DHT22;64022;53.652;9.792;2023-03-15T13:12:02;20.60;56.20
30244;DHT22;64022;53.652;9.792;2023-03-15T13:14:55;20.50;56.30
30244;DHT22;64022;53.652;9.792;2023-03-15T13:17:40;20.60;56.20
30244;DHT22;64022;53.652;9.792;2023-03-15T13:23:21;20.60;56.30
30244;DHT22;64022;53.652;9.792;2023-03-15T13:26:13;20.60;56.40
30244;DHT22;64022;53.652;9.792;2023-03-15T13:29:08;20.60;56.40
30244;DHT22;64022;53.652;9.792;2023-03-15T13:31:36;20.50;56.40
30244;DHT22;64022;53.652;9.792;2023-03-15T13:34:18;20.60;56.50
30244;DHT22;64022;53.652;9.792;2023-03-15T13:37:09;20.60;56.40
30244;DHT22;64022;53.652;9.792;2023-03-15T13:39:35;20.50;56.30
30244;DHT22;64022;53.652;9.792;2023-03-15T13:42:04;20.50;56.40
30244;DHT22;64022;53.652;9.792;2023-03-15T13:44:31;20.50;56.40
30244;DHT22;64022;53.652;9.792;2023-03-15T13:46:57;20.50;56.50
30244;DHT22;64022;53.652;9.792;2023-03-15T13:49:24;20.50;56.20
30244;DHT22;64022;53.652;9.792;2023-03-15T13:51:54;20.50;56.50
30244;DHT22;64022;53.652;9.792;2023-03-15T13:57:05;20.60;56.60
30244;DHT22;64022;53.652;9.792;2023-03-15T13:59:39;20.60;57.10
30244;DHT22;64022;53.652;9.792;2023-03-15T14:02:27;20.50;56.50
30244;DHT22;64022;53.652;9.792;2023-03-15T14:05:01;20.50;56.50
30244;DHT22;64022;53.652;9.792;2023-03-15T14:07:42;20.50;56.50
30244;DHT22;64022;53.652;9.792;2023-03-15T14:12:43;20.60;56.60
30244;DHT22;64022;53.652;9.792;2023-03-15T14:15:25;20.60;56.60
30244;DHT22;64022;53.652;9.792;2023-03-15T14:21:02;20.60;56.50
30244;DHT22;64022;53.652;9.792;2023-03-15T14:23:30;20.60;56.50
30244;DHT22;64022;53.652;9.792;2023-03-15T14:26:19;20.50;56.30
30244;DHT22;64022;53.652;9.792;2023-03-15T14:29:04;20.50;56.50
30244;DHT22;64022;53.652;9.792;2023-03-15T14:31:40;20.60;56.60
30244;DHT22;64022;53.652;9.792;2023-03-15T14:34:29;20.60;56.70
30244;DHT22;64022;53.652;9.792;2023-03-15T14:36:58;20.60;56.70
30244;DHT22;64022;53.652;9.792;2023-03-15T14:39:40;20.50;56.70
30244;DHT22;64022;53.652;9.792;2023-03-15T14:42:09;20.60;56.70
30244;DHT22;64022;53.652;9.792;2023-03-15T14:44:35;20.60;56.70
30244;DHT22;64022;53.652;9.792;2023-03-15T14:47:05;20.60;56.70
30244;DHT22;64022;53.652;9.792;2023-03-15T14:49:31;20.60;56.70
30244;DHT22;64022;53.652;9.792;2023-03-15T14:52:02;20.60;56.70
30244;DHT22;64022;53.652;9.792;2023-03-15T14:54:29;20.60;56.70
30244;DHT22;64022;53.652;9.792;2023-03-15T14:56:55;20.60;56.70
30244;DHT22;64022;53.652;9.792;2023-03-15T14:59:21;20.60;56.70
30244;DHT22;64022;53.652;9.792;2023-03-15T15:01:51;20.60;56.70
30244;DHT22;64022;53.652;9.792;2023-03-15T15:04:18;20.60;56.60
30244;DHT22;64022;53.652;9.792;2023-03-15T15:06:44;20.60;56.60
30244;DHT22;64022;53.652;9.792;2023-03-15T15:09:25;20.70;56.70
30244;DHT22;64022;53.652;9.792;2023-03-15T15:11:53;20.60;56.60
30244;DHT22;64022;53.652;9.792;2023-03-15T15:14:19;20.60;56.60
30244;DHT22;64022;53.652;9.792;2023-03-15T15:16:47;20.60;56.60
30244;DHT22;64022;53.652;9.792;2023-03-15T15:19:13;20.60;56.60
30244;DHT22;64022;53.652;9.792;2023-03-15T15:21:41;20.70;56.60
30244;DHT22;64022;53.652;9.792;2023-03-15T15:24:16;20.60;56.60
30244;DHT22;64022;53.652;9.792;2023-03-15T15:26:43;20.60;56.60
30244;DHT22;64022;53.652;9.792;2023-03-15T15:29:13;20.70;56.70
30244;DHT22;64022;53.652;9.792;2023-03-15T15:31:40;20.70;56.70
30244;DHT22;64022;53.652;9.792;2023-03-15T15:34:06;20.60;56.60
30244;DHT22;64022;53.652;9.792;2023-03-15T15:36:34;20.60;56.60
30244;DHT22;64022;53.652;9.792;2023-03-15T15:39:00;20.70;56.70
30244;DHT22;64022;53.652;9.792;2023-03-15T15:41:29;20.70;56.70
30244;DHT22;64022;53.652;9.792;2023-03-15T15:43:56;20.70;56.70
30244;DHT22;64022;53.652;9.792;2023-03-15T15:46:22;20.70;56.70
30244;DHT22;64022;53.652;9.792;2023-03-15T15:48:48;20.70;56.70
30244;DHT22;64022;53.652;9.792;2023-03-15T15:51:25;20.70;56.70
30244;DHT22;64022;53.652;9.792;2023-03-15T15:53:52;20.70;56.70
30244;DHT22;64022;53.652;9.792;2023-03-15T15:56:19;20.60;56.70
30244;DHT22;64022;53.652;9.792;2023-03-15T15:58:46;20.70;56.80
30244;DHT22;64022;53.652;9.792;2023-03-15T16:01:15;20.70;56.90
30244;DHT22;64022;53.652;9.792;2023-03-15T16:03:41;20.70;56.90
30244;DHT22;64022;53.652;9.792;2023-03-15T16:06:15;20.70;56.90
30244;DHT22;64022;53.652;9.792;2023-03-15T16:08:42;20.70;56.90
30244;DHT22;64022;53.652;9.792;2023-03-15T16:11:09;20.70;57.20
30244;DHT22;64022;53.652;9.792;2023-03-15T16:13:35;20.70;57.30
30244;DHT22;64022;53.652;9.792;2023-03-15T16:16:01;20.70;57.60
30244;DHT22;64022;53.652;9.792;2023-03-15T16:18:26;20.70;57.90
30244;DHT22;64022;53.652;9.792;2023-03-15T16:20:53;20.70;58.10
30244;DHT22;64022;53.652;9.792;2023-03-15T16:23:21;20.70;58.40
30244;DHT22;64022;53.652;9.792;2023-03-15T16:25:51;20.80;58.60
30244;DHT22;64022;53.652;9.792;2023-03-15T16:28:18;20.80;58.90
30244;DHT22;64022;53.652;9.792;2023-03-15T16:30:44;20.80;59.20
30244;DHT22;64022;53.652;9.792;2023-03-15T16:33:16;20.80;59.40
30244;DHT22;64022;53.652;9.792;2023-03-15T16:35:43;20.80;59.50
30244;DHT22;64022;53.652;9.792;2023-03-15T16:38:17;20.80;59.70
30244;DHT22;64022;53.652;9.792;2023-03-15T16:40:49;20.80;59.60
30244;DHT22;64022;53.652;9.792;2023-03-15T16:43:15;20.80;60.00
30244;DHT22;64022;53.652;9.792;2023-03-15T16:45:41;20.80;60.10
30244;DHT22;64022;53.652;9.792;2023-03-15T16:48:06;20.80;60.10
30244;DHT22;64022;53.652;9.792;2023-03-15T16:50:32;20.90;60.30